sensor_id;sensor_type;location;lat;lon;timestamp;temperature;humidity
25811;DHT22;13645;52.460;13.910;2023-01-15T00:01:02;8.10;99.90
25811;DHT22;13645;52.460;13.910;2023-01-15T00:03:30;8.10;99.90
25811;DHT22;13645;52.460;13.910;2023-01-15T00:06:03;8.00;99.90
25811;DHT22;13645;52.460;13.910;2023-01-15T00:08:30;8.10;99.90
25811;DHT22;13645;52.460;13.910;2023-01-15T00:10:56;8.10;99.90
25811;DHT22;13645;52.460;13.910;2023-01-15T00:13:23;8.10;99.90
25811;DHT22;13645;52.460;13.910;2023-01-15T00:15:50;8.10;99.90
25811;DHT22;13645;52.460;13.910;2023-01-15T00:18:16;8.10;99.90
25811;DHT22;13645;52.460;13.910;2023-01-15T00:20:43;8.20;99.90
25811;DHT22;13645;52.460;13.910;2023-01-15T00:23:10;8.20;99.90
25811;DHT22;13645;52.460;13.910;2023-01-15T00:25:57;8.20;99.90
25811;DHT22;13645;52.460;13.910;2023-01-15T00:28:42;8.20;99.90
25811;DHT22;13645;52.460;13.910;2023-01-15T00:31:09;8.20;99.90
25811;DHT22;13645;52.460;13.910;2023-01-15T00:33:35;8.20;99.90
25811;DHT22;13645;52.460;13.910;2023-01-15T00:36:02;8.30;99.90
25811;DHT22;13645;52.460;13.910;2023-01-15T00:38:29;8.30;99.90
25811;DHT22;13645;52.460;13.910;2023-01-15T00:40:56;8.30;99.90
25811;DHT22;13645;52.460;13.910;2023-01-15T00:43:22;8.40;99.90
25811;DHT22;13645;52.460;13.910;2023-01-15T00:45:49;8.40;99.90
25811;DHT22;13645;52.460;13.910;2023-01-15T00:48:16;8.40;99.90
25811;DHT22;13645;52.460;13.910;2023-01-15T00:50:43;8.30;99.90
25811;DHT22;13645;52.460;13.910;2023-01-15T00:53:10;8.30;99.90
25811;DHT22;13645;52.460;13.910;2023-01-15T00:55:37;8.40;99.90
25811;DHT22;13645;52.460;13.910;2023-01-15T00:58:03;8.30;99.90
25811;DHT22;13645;52.460;13.910;2023-01-15T01:00:30;8.40;99.90
25811;DHT22;13645;52.460;13.910;2023-01-15T01:02:57;8.40;99.90
25811;DHT22;13645;52.460;13.910;2023-01-15T01:05:23;8.40;99.90
25811;DHT22;13645;52.460;13.910;2023-01-15T01:07:51;8.30;99.90
25811;DHT22;13645;52.460;13.910;2023-01-15T01:10:17;8.40;99.90
25811;DHT22;13645;52.460;13.910;2023-01-15T01:12:44;8.30;99.90
25811;DHT22;13645;52.460;13.910;2023-01-15T01:15:11;8.30;99.90
25811;DHT22;13645;52.460;13.910;2023-01-15T01:17:38;8.30;99.90
25811;DHT22;13645;52.460;13.910;2023-01-15T01:20:05;8.40;99.90
25811;DHT22;13645;52.460;13.910;2023-01-15T01:22:32;8.30;99.90
25811;DHT22;13645;52.460;13.910;2023-01-15T01:24:59;8.30;99.90
25811;DHT22;13645;52.460;13.910;2023-01-15T01:27:25;8.30;99.90
25811;DHT22;13645;52.460;13.910;2023-01-15T01:29:52;8.30;99.90
25811;DHT22;13645;52.460;13.910;2023-01-15T01:32:19;8.30;99.90
25811;DHT22;13645;52.460;13.910;2023-01-15T01:34:45;8.30;99.90
25811;DHT22;13645;52.460;13.910;2023-01-15T01:37:14;8.30;99.90
25811;DHT22;13645;52.460;13.910;2023-01-15T01:39:40;8.30;99.90
25811;DHT22;13645;52.460;13.910;2023-01-15T01:42:15;8.20;99.90
25811;DHT22;13645;52.460;13.910;2023-01-15T01:47:19;8.20;99.90
25811;DHT22;13645;52.460;13.910;2023-01-15T01:49:52;8.30;99.90
25811;DHT22;13645;52.460;13.910;2023-01-15T01:52:24;8.30;99.90
25811;DHT22;13645;52.460;13.910;2023-01-15T01:54:52;8.30;99.90
25811;DHT22;13645;52.460;13.910;2023-01-15T01:57:20;8.30;99.90
25811;DHT22;13645;52.460;13.910;2023-01-15T01:59:47;8.30;99.90
25811;DHT22;13645;52.460;13.910;2023-01-15T02:02:15;8.30;99.90
25811;DHT22;13645;52.460;13.910;2023-01-15T02:04:43;8.30;99.90
25811;DHT22;13645;52.460;13.910;2023-01-15T02:07:10;8.30;99.90
25811;DHT22;13645;52.460;13.910;2023-01-15T02:09:37;8.30;99.90
25811;DHT22;13645;52.460;13.910;2023-01-15T02:12:22;8.30;99.90
25811;DHT22;13645;52.460;13.910;2023-01-15T02:14:59;8.30;99.90
25811;DHT22;13645;52.460;13.910;2023-01-15T02:17:51;8.40;99.90
25811;DHT22;13645;52.460;13.910;2023-01-15T02:20:28;8.40;99.90
25811;DHT22;13645;52.460;13.910;2023-01-15T02:23:10;8.30;99.90
25811;DHT22;13645;52.460;13.910;2023-01-15T02:28:36;8.40;99.90
25811;DHT22;13645;52.460;13.910;2023-01-15T02:31:18;8.40;99.90
25811;DHT22;13645;52.460;13.910;2023-01-15T02:33:50;8.40;99.90
25811;DHT22;13645;52.460;13.910;2023-01-15T02:36:23;8.40;99.90
25811;DHT22;13645;52.460;13.910;2023-01-15T02:38:54;8.40;99.90
25811;DHT22;13645;52.460;13.910;2023-01-15T02:41:27;8.40;99.90
25811;DHT22;13645;52.460;13.910;2023-01-15T02:43:56;8.40;99.90
25811;DHT22;13645;52.460;13.910;2023-01-15T02:46:28;8.40;99.90
25811;DHT22;13645;52.460;13.910;2023-01-15T02:48:57;8.40;99.90
25811;DHT22;13645;52.460;13.910;2023-01-15T02:51:30;8.40;99.90
25811;DHT22;13645;52.460;13.910;2023-01-15T02:54:00;8.40;99.90
25811;DHT22;13645;52.460;13.910;2023-01-15T02:56:31;8.40;99.90
25811;DHT22;13645;52.460;13.910;2023-01-15T02:59:03;8.40;99.90
25811;DHT22;13645;52.460;13.910;2023-01-15T03:01:35;8.40;99.90
25811;DHT22;13645;52.460;13.910;2023-01-15T03:04:16;8.40;99.90
25811;DHT22;13645;52.460;13.910;2023-01-15T03:06:55;8.40;99.90
25811;DHT22;13645;52.460;13.910;2023-01-15T03:09:25;8.40;99.90
25811;DHT22;13645;52.460;13.910;2023-01-15T03:12:19;8.30;99.90
25811;DHT22;13645;52.460;13.910;2023-01-15T03:17:53;8.30;99.90
25811;DHT22;13645;52.460;13.910;2023-01-15T03:20:25;8.30;99.90
25811;DHT22;13645;52.460;13.910;2023-01-15T03:22:59;8.30;99.90
25811;DHT22;13645;52.460;13.910;2023-01-15T03:25:31;8.40;99.90
25811;DHT22;13645;52.460;13.910;2023-01-15T03:28:02;8.30;99.90
25811;DHT22;13645;52.460;13.910;2023-01-15T03:30:30;8.30;99.90
25811;DHT22;13645;52.460;13.910;2023-01-15T03:32:57;8.30;99.90
25811;DHT22;13645;52.460;13.910;2023-01-15T03:38:14;8.30;99.90
25811;DHT22;13645;52.460;13.910;2023-01-15T03:40:49;8.30;99.90
25811;DHT22;13645;52.460;13.910;2023-01-15T03:43:20;8.30;99.90
25811;DHT22;13645;52.460;13.910;2023-01-15T03:46:15;8.30;99.90
25811;DHT22;13645;52.460;13.910;2023-01-15T03:54:56;8.30;99.90
25811;DHT22;13645;52.460;13.910;2023-01-15T03:57:27;8.30;99.90
25811;DHT22;13645;52.460;13.910;2023-01-15T03:59:58;8.40;99.90
25811;DHT22;13645;52.460;13.910;2023-01-15T04:02:29;8.40;99.90
25811;DHT22;13645;52.460;13.910;2023-01-15T04:04:57;8.50;99.90
25811;DHT22;13645;52.460;13.910;2023-01-15T04:07:24;8.50;99.90
25811;DHT22;13645;52.460;13.910;2023-01-15T04:09:52;8.50;99.90
25811;DHT22;13645;52.460;13.910;2023-01-15T04:12:18;8.50;99.90
25811;DHT22;13645;52.460;13.910;2023-01-15T04:14:45;8.50;99.90
25811;DHT22;13645;52.460;13.910;2023-01-15T04:17:12;8.50;99.90
25811;DHT22;13645;52.460;13.910;2023-01-15T04:19:38;8.50;99.90
25811;DHT22;13645;52.460;13.910;2023-01-15T04:22:05;8.50;99.90
25811;DHT22;13645;52.460;13.910;2023-01-15T04:24:32;8.50;99.90
25811;DHT22;13645;52.460;13.910;2023-01-15T04:26:59;8.60;99.90
25811;DHT22;13645;52.460;13.910;2023-01-15T04:29:26;8.50;99.90
25811;DHT22;13645;52.460;13.910;2023-01-15T04:31:52;8.50;99.90
25811;DHT22;13645;52.460;13.910;2023-01-15T04:34:26;8.50;99.90
25811;DHT22;13645;52.460;13.910;2023-01-15T04:36:54;8.50;99.90
25811;DHT22;13645;52.460;13.910;2023-01-15T04:39:21;8.50;99.90
25811;DHT22;13645;52.460;13.910;2023-01-15T04:41:48;8.50;99.90
25811;DHT22;13645;52.460;13.910;2023-01-15T04:44:34;8.40;99.90
25811;DHT22;13645;52.460;13.910;2023-01-15T04:47:01;8.50;99.90
25811;DHT22;13645;52.460;13.910;2023-01-15T04:49:28;8.50;99.90
25811;DHT22;13645;52.460;13.910;2023-01-15T04:51:55;8.60;99.90
25811;DHT22;13645;52.460;13.910;2023-01-15T04:54:22;8.60;99.90
25811;DHT22;13645;52.460;13.910;2023-01-15T04:56:51;8.60;99.90
25811;DHT22;13645;52.460;13.910;2023-01-15T04:59:26;8.40;99.90
25811;DHT22;13645;52.460;13.910;2023-01-15T05:01:53;8.30;99.90
25811;DHT22;13645;52.460;13.910;2023-01-15T05:04:31;7.90;99.90
25811;DHT22;13645;52.460;13.910;2023-01-15T05:07:00;7.80;99.90
25811;DHT22;13645;52.460;13.910;2023-01-15T05:09:28;7.70;99.90
25811;DHT22;13645;52.460;13.910;2023-01-15T05:11:54;7.60;99.90
25811;DHT22;13645;52.460;13.910;2023-01-15T05:14:21;7.40;99.90
25811;DHT22;13645;52.460;13.910;2023-01-15T05:16:48;7.40;99.90
25811;DHT22;13645;52.460;13.910;2023-01-15T05:19:15;7.20;99.90
25811;DHT22;13645;52.460;13.910;2023-01-15T05:21:43;7.10;99.90
25811;DHT22;13645;52.460;13.910;2023-01-15T05:24:13;7.10;99.90
25811;DHT22;13645;52.460;13.910;2023-01-15T05:26:41;7.00;99.90
25811;DHT22;13645;52.460;13.910;2023-01-15T05:29:09;6.90;99.90
25811;DHT22;13645;52.460;13.910;2023-01-15T05:31:37;6.80;99.90
25811;DHT22;13645;52.460;13.910;2023-01-15T05:34:04;6.70;99.90
25811;DHT22;13645;52.460;13.910;2023-01-15T05:36:31;6.60;99.90
25811;DHT22;13645;52.460;13.910;2023-01-15T05:38:58;6.60;99.90
25811;DHT22;13645;52.460;13.910;2023-01-15T05:41:28;6.50;99.90
25811;DHT22;13645;52.460;13.910;2023-01-15T05:44:23;6.40;99.90
25811;DHT22;13645;52.460;13.910;2023-01-15T05:46:52;6.30;99.90
25811;DHT22;13645;52.460;13.910;2023-01-15T05:49:21;6.20;99.90
25811;DHT22;13645;52.460;13.910;2023-01-15T05:51:49;6.20;99.90
25811;DHT22;13645;52.460;13.910;2023-01-15T05:54:21;6.20;99.90
25811;DHT22;13645;52.460;13.910;2023-01-15T05:56:48;6.10;99.90
25811;DHT22;13645;52.460;13.910;2023-01-15T05:59:17;6.10;99.90
25811;DHT22;13645;52.460;13.910;2023-01-15T06:01:44;6.10;99.90
25811;DHT22;13645;52.460;13.910;2023-01-15T06:04:12;5.90;99.90
25811;DHT22;13645;52.460;13.910;2023-01-15T06:06:40;6.00;99.90
25811;DHT22;13645;52.460;13.910;2023-01-15T06:09:08;5.90;99.90
25811;DHT22;13645;52.460;13.910;2023-01-15T06:11:34;5.90;99.90
25811;DHT22;13645;52.460;13.910;2023-01-15T06:14:01;5.90;99.90
25811;DHT22;13645;52.460;13.910;2023-01-15T06:16:28;5.90;99.90
25811;DHT22;13645;52.460;13.910;2023-01-15T06:18:58;5.80;99.90
25811;DHT22;13645;52.460;13.910;2023-01-15T06:21:25;5.80;99.90
25811;DHT22;13645;52.460;13.910;2023-01-15T06:23:52;5.80;99.90
25811;DHT22;13645;52.460;13.910;2023-01-15T06:26:19;5.90;99.90
25811;DHT22;13645;52.460;13.910;2023-01-15T06:28:47;5.80;99.90
25811;DHT22;13645;52.460;13.910;2023-01-15T06:31:16;5.80;99.90
25811;DHT22;13645;52.460;13.910;2023-01-15T06:33:43;5.80;99.90
25811;DHT22;13645;52.460;13.910;2023-01-15T06:36:12;5.80;99.90
25811;DHT22;13645;52.460;13.910;2023-01-15T06:38:40;5.80;99.90
25811;DHT22;13645;52.460;13.910;2023-01-15T06:41:11;5.80;99.90
25811;DHT22;13645;52.460;13.910;2023-01-15T06:43:56;5.70;99.90
25811;DHT22;13645;52.460;13.910;2023-01-15T06:46:44;5.70;99.90
25811;DHT22;13645;52.460;13.910;2023-01-15T06:49:30;5.80;99.90
25811;DHT22;13645;52.460;13.910;2023-01-15T06:51:58;5.70;99.90
25811;DHT22;13645;52.460;13.910;2023-01-15T06:54:25;5.80;99.90
25811;DHT22;13645;52.460;13.910;2023-01-15T06:56:52;5.70;99.90
25811;DHT22;13645;52.460;13.910;2023-01-15T06:59:19;5.80;99.90
25811;DHT22;13645;52.460;13.910;2023-01-15T07:01:46;5.70;99.90
25811;DHT22;13645;52.460;13.910;2023-01-15T07:04:13;5.80;99.90
25811;DHT22;13645;52.460;13.910;2023-01-15T07:06:40;5.80;99.90
25811;DHT22;13645;52.460;13.910;2023-01-15T07:09:07;5.70;99.90
25811;DHT22;13645;52.460;13.910;2023-01-15T07:11:34;5.70;99.90
25811;DHT22;13645;52.460;13.910;2023-01-15T07:14:01;5.70;99.90
25811;DHT22;13645;52.460;13.910;2023-01-15T07:16:34;5.70;99.90
25811;DHT22;13645;52.460;13.910;2023-01-15T07:19:03;5.60;99.90
25811;DHT22;13645;52.460;13.910;2023-01-15T07:21:30;5.60;99.90
25811;DHT22;13645;52.460;13.910;2023-01-15T07:24:00;5.50;99.90
25811;DHT22;13645;52.460;13.910;2023-01-15T07:26:27;5.50;99.90
25811;DHT22;13645;52.460;13.910;2023-01-15T07:28:54;5.50;99.90
25811;DHT22;13645;52.460;13.910;2023-01-15T07:31:20;5.50;99.90
25811;DHT22;13645;52.460;13.910;2023-01-15T07:33:47;5.50;99.90
25811;DHT22;13645;52.460;13.910;2023-01-15T07:36:14;5.50;99.90
25811;DHT22;13645;52.460;13.910;2023-01-15T07:38:41;5.40;99.90
25811;DHT22;13645;52.460;13.910;2023-01-15T07:41:08;5.40;99.90
25811;DHT22;13645;52.460;13.910;2023-01-15T07:43:53;5.50;99.90
25811;DHT22;13645;52.460;13.910;2023-01-15T07:46:39;5.50;99.90
25811;DHT22;13645;52.460;13.910;2023-01-15T07:49:24;5.50;99.90
25811;DHT22;13645;52.460;13.910;2023-01-15T07:52:18;5.50;99.90
25811;DHT22;13645;52.460;13.910;2023-01-15T07:54:45;5.50;99.90
25811;DHT22;13645;52.460;13.910;2023-01-15T07:57:15;5.50;99.90
25811;DHT22;13645;52.460;13.910;2023-01-15T07:59:42;5.50;99.90
25811;DHT22;13645;52.460;13.910;2023-01-15T08:02:09;5.50;99.90
25811;DHT22;13645;52.460;13.910;2023-01-15T08:04:36;5.50;99.90
25811;DHT22;13645;52.460;13.910;2023-01-15T08:07:03;5.50;99.90
25811;DHT22;13645;52.460;13.910;2023-01-15T08:09:35;5.50;99.90
25811;DHT22;13645;52.460;13.910;2023-01-15T08:12:02;5.60;99.90
25811;DHT22;13645;52.460;13.910;2023-01-15T08:14:48;5.60;99.90
25811;DHT22;13645;52.460;13.910;2023-01-15T08:17:34;5.60;99.90
25811;DHT22;13645;52.460;13.910;2023-01-15T08:20:04;5.60;99.90
25811;DHT22;13645;52.460;13.910;2023-01-15T08:22:31;5.60;99.90
25811;DHT22;13645;52.460;13.910;2023-01-15T08:24:57;5.60;99.90
25811;DHT22;13645;52.460;13.910;2023-01-15T08:27:25;5.60;99.90
25811;DHT22;13645;52.460;13.910;2023-01-15T08:29:52;5.50;99.90
25811;DHT22;13645;52.460;13.910;2023-01-15T08:32:18;5.60;99.90
25811;DHT22;13645;52.460;13.910;2023-01-15T08:34:45;5.60;99.90
25811;DHT22;13645;52.460;13.910;2023-01-15T08:37:12;5.50;99.90
25811;DHT22;13645;52.460;13.910;2023-01-15T08:39:39;5.50;99.90
25811;DHT22;13645;52.460;13.910;2023-01-15T08:42:05;5.50;99.90
25811;DHT22;13645;52.460;13.910;2023-01-15T08:44:32;5.60;99.90
25811;DHT22;13645;52.460;13.910;2023-01-15T08:46:59;5.60;99.90
25811;DHT22;13645;52.460;13.910;2023-01-15T08:49:26;5.60;99.90
25811;DHT22;13645;52.460;13.910;2023-01-15T08:51:53;5.70;99.90
25811;DHT22;13645;52.460;13.910;2023-01-15T08:54:21;5.60;99.90
25811;DHT22;13645;52.460;13.910;2023-01-15T08:56:50;5.70;99.90
25811;DHT22;13645;52.460;13.910;2023-01-15T08:59:17;5.60;99.90
25811;DHT22;13645;52.460;13.910;2023-01-15T09:01:44;5.60;99.90
25811;DHT22;13645;52.460;13.910;2023-01-15T09:04:19;5.70;99.90
25811;DHT22;13645;52.460;13.910;2023-01-15T09:06:47;5.80;99.90
25811;DHT22;13645;52.460;13.910;2023-01-15T09:09:14;5.70;99.90
25811;DHT22;13645;52.460;13.910;2023-01-15T09:11:41;5.80;99.90
25811;DHT22;13645;52.460;13.910;2023-01-15T09:14:13;5.80;99.90
25811;DHT22;13645;52.460;13.910;2023-01-15T09:17:00;5.70;99.90
25811;DHT22;13645;52.460;13.910;2023-01-15T09:19:27;5.80;99.90
25811;DHT22;13645;52.460;13.910;2023-01-15T09:21:54;5.80;99.90
25811;DHT22;13645;52.460;13.910;2023-01-15T09:24:20;5.80;99.90
25811;DHT22;13645;52.460;13.910;2023-01-15T09:26:48;5.80;99.90
25811;DHT22;13645;52.460;13.910;2023-01-15T09:29:18;5.80;99.90
25811;DHT22;13645;52.460;13.910;2023-01-15T09:31:45;5.80;99.90
25811;DHT22;13645;52.460;13.910;2023-01-15T09:34:12;5.90;99.90
25811;DHT22;13645;52.460;13.910;2023-01-15T09:36:39;5.90;99.90
25811;DHT22;13645;52.460;13.910;2023-01-15T09:39:07;6.00;99.90
25811;DHT22;13645;52.460;13.910;2023-01-15T09:41:53;6.00;99.90
25811;DHT22;13645;52.460;13.910;2023-01-15T09:48:22;6.00;99.90
25811;DHT22;13645;52.460;13.910;2023-01-15T09:50:38;6.10;99.90
25811;DHT22;13645;52.460;13.910;2023-01-15T09:53:22;6.00;99.90
25811;DHT22;13645;52.460;13.910;2023-01-15T09:55:53;6.10;99.90
25811;DHT22;13645;52.460;13.910;2023-01-15T09:58:35;6.10;99.90
25811;DHT22;13645;52.460;13.910;2023-01-15T10:01:03;6.10;99.90
25811;DHT22;13645;52.460;13.910;2023-01-15T10:03:50;6.10;99.90
25811;DHT22;13645;52.460;13.910;2023-01-15T10:06:28;6.00;99.90
25811;DHT22;13645;52.460;13.910;2023-01-15T10:09:08;6.10;99.90
25811;DHT22;13645;52.460;13.910;2023-01-15T10:11:41;6.20;99.90
25811;DHT22;13645;52.460;13.910;2023-01-15T10:14:35;6.20;99.90
25811;DHT22;13645;52.460;13.910;2023-01-15T10:17:15;6.30;99.90
25811;DHT22;13645;52.460;13.910;2023-01-15T10:19:43;6.30;99.90
25811;DHT22;13645;52.460;13.910;2023-01-15T10:22:45;6.40;99.90
25811;DHT22;13645;52.460;13.910;2023-01-15T10:25:15;6.40;99.90
25811;DHT22;13645;52.460;13.910;2023-01-15T10:27:50;6.40;99.90
25811;DHT22;13645;52.460;13.910;2023-01-15T10:30:33;6.40;99.90
25811;DHT22;13645;52.460;13.910;2023-01-15T10:33:19;6.50;99.90
25811;DHT22;13645;52.460;13.910;2023-01-15T10:36:06;6.60;99.90
25811;DHT22;13645;52.460;13.910;2023-01-15T10:39:33;6.50;99.90
25811;DHT22;13645;52.460;13.910;2023-01-15T10:45:08;6.50;99.90
25811;DHT22;13645;52.460;13.910;2023-01-15T10:47:38;6.50;99.90
25811;DHT22;13645;52.460;13.910;2023-01-15T10:50:17;6.60;99.90
25811;DHT22;13645;52.460;13.910;2023-01-15T10:53:01;6.50;99.90
25811;DHT22;13645;52.460;13.910;2023-01-15T11:00:37;6.60;99.90
25811;DHT22;13645;52.460;13.910;2023-01-15T11:03:11;6.50;99.90
25811;DHT22;13645;52.460;13.910;2023-01-15T11:05:41;6.60;99.90
25811;DHT22;13645;52.460;13.910;2023-01-15T11:08:15;6.60;99.90
25811;DHT22;13645;52.460;13.910;2023-01-15T11:12:01;6.60;99.90
25811;DHT22;13645;52.460;13.910;2023-01-15T11:14:37;6.60;99.90
25811;DHT22;13645;52.460;13.910;2023-01-15T11:17:26;6.60;99.90
25811;DHT22;13645;52.460;13.910;2023-01-15T11:20:27;6.60;99.90
25811;DHT22;13645;52.460;13.910;2023-01-15T11:22:56;6.60;99.90
25811;DHT22;13645;52.460;13.910;2023-01-15T11:25:30;6.60;99.90
25811;DHT22;13645;52.460;13.910;2023-01-15T11:28:01;6.60;99.90
25811;DHT22;13645;52.460;13.910;2023-01-15T11:30:34;6.70;99.90
25811;DHT22;13645;52.460;13.910;2023-01-15T11:33:15;6.70;99.90
25811;DHT22;13645;52.460;13.910;2023-01-15T11:35:50;6.70;99.90
25811;DHT22;13645;52.460;13.910;2023-01-15T11:38:17;6.80;99.90
25811;DHT22;13645;52.460;13.910;2023-01-15T11:40:58;6.80;99.90
25811;DHT22;13645;52.460;13.910;2023-01-15T11:43:29;6.90;99.90
25811;DHT22;13645;52.460;13.910;2023-01-15T11:46:25;6.90;99.90
25811;DHT22;13645;52.460;13.910;2023-01-15T11:49:21;6.90;99.90
25811;DHT22;13645;52.460;13.910;2023-01-15T11:52:12;6.90;99.90
25811;DHT22;13645;52.460;13.910;2023-01-15T11:54:42;6.90;99.90
25811;DHT22;13645;52.460;13.910;2023-01-15T11:57:10;7.00;99.90
25811;DHT22;13645;52.460;13.910;2023-01-15T11:59:37;7.00;99.90
25811;DHT22;13645;52.460;13.910;2023-01-15T12:02:21;7.10;99.90
25811;DHT22;13645;52.460;13.910;2023-01-15T12:04:53;7.10;99.90
25811;DHT22;13645;52.460;13.910;2023-01-15T12:07:22;7.10;99.90
25811;DHT22;13645;52.460;13.910;2023-01-15T12:09:56;7.00;99.90
25811;DHT22;13645;52.460;13.910;2023-01-15T12:12:39;7.10;99.90
25811;DHT22;13645;52.460;13.910;2023-01-15T12:23:19;7.00;99.90
25811;DHT22;13645;52.460;13.910;2023-01-15T12:28:39;7.00;99.90
25811;DHT22;13645;52.460;13.910;2023-01-15T12:31:13;7.00;99.90
25811;DHT22;13645;52.460;13.910;2023-01-15T12:33:54;7.00;99.90
25811;DHT22;13645;52.460;13.910;2023-01-15T12:36:51;7.10;99.90
25811;DHT22;13645;52.460;13.910;2023-01-15T12:42:02;7.10;99.90
25811;DHT22;13645;52.460;13.910;2023-01-15T12:44:52;7.10;99.90
25811;DHT22;13645;52.460;13.910;2023-01-15T12:47:45;7.10;99.90
25811;DHT22;13645;52.460;13.910;2023-01-15T12:55:41;7.20;99.90
25811;DHT22;13645;52.460;13.910;2023-01-15T12:58:27;7.10;99.90
25811;DHT22;13645;52.460;13.910;2023-01-15T13:01:05;7.30;99.90
25811;DHT22;13645;52.460;13.910;2023-01-15T13:04:10;7.20;99.90
25811;DHT22;13645;52.460;13.910;2023-01-15T13:06:41;7.20;99.90
25811;DHT22;13645;52.460;13.910;2023-01-15T13:11:40;7.20;99.90
25811;DHT22;13645;52.460;13.910;2023-01-15T13:14:15;7.20;99.90
25811;DHT22;13645;52.460;13.910;2023-01-15T13:17:04;7.20;99.90
25811;DHT22;13645;52.460;13.910;2023-01-15T13:19:41;7.20;99.90
25811;DHT22;13645;52.460;13.910;2023-01-15T13:22:25;7.20;99.90
25811;DHT22;13645;52.460;13.910;2023-01-15T13:33:25;7.80;99.90
25811;DHT22;13645;52.460;13.910;2023-01-15T13:36:15;7.60;99.90
25811;DHT22;13645;52.460;13.910;2023-01-15T13:38:48;7.50;99.90
25811;DHT22;13645;52.460;13.910;2023-01-15T13:41:19;7.20;99.90
25811;DHT22;13645;52.460;13.910;2023-01-15T13:44:21;7.10;99.90
25811;DHT22;13645;52.460;13.910;2023-01-15T13:47:05;7.10;99.90
25811;DHT22;13645;52.460;13.910;2023-01-15T13:49:39;7.00;99.90
25811;DHT22;13645;52.460;13.910;2023-01-15T13:52:17;7.00;99.90
25811;DHT22;13645;52.460;13.910;2023-01-15T13:54:45;7.20;99.90
25811;DHT22;13645;52.460;13.910;2023-01-15T13:57:32;7.20;99.90
25811;DHT22;13645;52.460;13.910;2023-01-15T14:00:06;7.20;99.90
25811;DHT22;13645;52.460;13.910;2023-01-15T14:02:36;7.10;99.90
25811;DHT22;13645;52.460;13.910;2023-01-15T14:05:30;7.00;99.90
25811;DHT22;13645;52.460;13.910;2023-01-15T14:07:58;6.90;99.90
25811;DHT22;13645;52.460;13.910;2023-01-15T14:27:07;7.10;99.90
25811;DHT22;13645;52.460;13.910;2023-01-15T14:35:23;7.50;99.90
25811;DHT22;13645;52.460;13.910;2023-01-15T14:37:55;7.50;99.90
25811;DHT22;13645;52.460;13.910;2023-01-15T14:40:27;7.70;99.90
25811;DHT22;13645;52.460;13.910;2023-01-15T14:42:56;7.60;99.90
25811;DHT22;13645;52.460;13.910;2023-01-15T14:48:04;7.30;99.90
25811;DHT22;13645;52.460;13.910;2023-01-15T15:01:12;6.70;99.90
25811;DHT22;13645;52.460;13.910;2023-01-15T15:04:09;6.80;99.90
25811;DHT22;13645;52.460;13.910;2023-01-15T15:06:38;6.70;99.90
25811;DHT22;13645;52.460;13.910;2023-01-15T15:09:11;6.60;99.90
25811;DHT22;13645;52.460;13.910;2023-01-15T15:11:45;6.60;99.90
25811;DHT22;13645;52.460;13.910;2023-01-15T15:14:34;6.50;99.90
25811;DHT22;13645;52.460;13.910;2023-01-15T15:17:06;6.40;99.90
25811;DHT22;13645;52.460;13.910;2023-01-15T15:19:44;6.40;99.90
25811;DHT22;13645;52.460;13.910;2023-01-15T15:22:15;6.40;99.90
25811;DHT22;13645;52.460;13.910;2023-01-15T15:24:49;6.40;99.90
25811;DHT22;13645;52.460;13.910;2023-01-15T15:27:20;6.40;99.90
25811;DHT22;13645;52.460;13.910;2023-01-15T15:29:48;6.30;99.90
25811;DHT22;13645;52.460;13.910;2023-01-15T15:32:17;6.30;99.90
25811;DHT22;13645;52.460;13.910;2023-01-15T15:34:47;6.30;99.90
25811;DHT22;13645;52.460;13.910;2023-01-15T15:37:18;6.30;99.90
25811;DHT22;13645;52.460;13.910;2023-01-15T15:40:04;6.20;99.90
25811;DHT22;13645;52.460;13.910;2023-01-15T15:45:51;6.10;99.90
25811;DHT22;13645;52.460;13.910;2023-01-15T15:48:37;6.10;99.90
25811;DHT22;13645;52.460;13.910;2023-01-15T15:51:32;6.00;99.90
25811;DHT22;13645;52.460;13.910;2023-01-15T15:57:11;6.00;99.90
25811;DHT22;13645;52.460;13.910;2023-01-15T15:59:46;5.90;99.90
25811;DHT22;13645;52.460;13.910;2023-01-15T16:02:20;5.90;99.90
25811;DHT22;13645;52.460;13.910;2023-01-15T16:04:50;5.80;99.90
25811;DHT22;13645;52.460;13.910;2023-01-15T16:07:43;5.80;99.90
25811;DHT22;13645;52.460;13.910;2023-01-15T16:10:31;5.80;99.90
25811;DHT22;13645;52.460;13.910;2023-01-15T16:13:02;5.80;99.90
25811;DHT22;13645;52.460;13.910;2023-01-15T16:15:33;5.70;99.90
25811;DHT22;13645;52.460;13.910;2023-01-15T16:18:02;5.70;99.90
25811;DHT22;13645;52.460;13.910;2023-01-15T16:20:29;5.70;99.90
25811;DHT22;13645;52.460;13.910;2023-01-15T16:23:01;5.70;99.90
25811;DHT22;13645;52.460;13.910;2023-01-15T16:25:37;5.70;99.90
25811;DHT22;13645;52.460;13.910;2023-01-15T16:28:06;5.70;99.90
25811;DHT22;13645;52.460;13.910;2023-01-15T16:30:44;5.60;99.90
25811;DHT22;13645;52.460;13.910;2023-01-15T16:33:14;5.60;99.90
25811;DHT22;13645;52.460;13.910;2023-01-15T16:35:41;5.60;99.90
25811;DHT22;13645;52.460;13.910;2023-01-15T16:38:16;5.60;99.90
25811;DHT22;13645;52.460;13.910;2023-01-15T16:40:45;5.60;99.90
25811;DHT22;13645;52.460;13.910;2023-01-15T16:43:21;5.60;99.90
25811;DHT22;13645;52.460;13.910;2023-01-15T16:48:29;5.50;99.90
25811;DHT22;13645;52.460;13.910;2023-01-15T16:51:30;5.60;99.90
25811;DHT22;13645;52.460;13.910;2023-01-15T16:54:02;5.60;99.90
25811;DHT22;13645;52.460;13.910;2023-01-15T17:01:53;5.50;99.90
25811;DHT22;13645;52.460;13.910;2023-01-15T17:04:36;5.50;99.90
25811;DHT22;13645;52.460;13.910;2023-01-15T17:07:06;5.50;99.90
25811;DHT22;13645;52.460;13.910;2023-01-15T17:09:35;5.50;99.90
25811;DHT22;13645;52.460;13.910;2023-01-15T17:12:30;5.60;99.90
25811;DHT22;13645;52.460;13.910;2023-01-15T17:17:49;5.60;99.90
25811;DHT22;13645;52.460;13.910;2023-01-15T17:20:18;5.70;99.90
25811;DHT22;13645;52.460;13.910;2023-01-15T17:22:47;5.70;99.90
25811;DHT22;13645;52.460;13.910;2023-01-15T17:25:25;5.70;99.90
25811;DHT22;13645;52.460;13.910;2023-01-15T17:27:56;5.70;99.90
25811;DHT22;13645;52.460;13.910;2023-01-15T17:30:26;5.70;99.90
25811;DHT22;13645;52.460;13.910;2023-01-15T17:32:57;5.70;99.90
25811;DHT22;13645;52.460;13.910;2023-01-15T17:35:35;5.70;99.90
25811;DHT22;13645;52.460;13.910;2023-01-15T17:38:03;5.70;99.90
25811;DHT22;13645;52.460;13.910;2023-01-15T17:40:32;5.70;99.90
25811;DHT22;13645;52.460;13.910;2023-01-15T17:42:58;5.70;99.90
25811;DHT22;13645;52.460;13.910;2023-01-15T17:45:27;5.70;99.90
25811;DHT22;13645;52.460;13.910;2023-01-15T17:47:54;5.70;99.90
25811;DHT22;13645;52.460;13.910;2023-01-15T17:50:22;5.60;99.90
25811;DHT22;13645;52.460;13.910;2023-01-15T17:52:50;5.60;99.90
25811;DHT22;13645;52.460;13.910;2023-01-15T17:55:19;5.60;99.90
25811;DHT22;13645;52.460;13.910;2023-01-15T17:58:05;5.70;99.90